Time;durP1;ratioP1;P1;durP2;ratioP2;P2;SDS_P1;SDS_P2;PMS_P1;PMS_P2;Temp;Humidity;BMP_temperature;BMP_pressure;BME280_temperature;BME280_humidity;BME280_pressure;Samples;Min_cycle;Max_cycle;Signal;HPM_P1;HPM_P2
2023/12/04 00:01:47;;;;;;;11.35;6.85;;;;;;;;;;10438234;28;20341;-74
2023/12/04 00:06:47;;;;;;;12.27;7.72;;;;;;;;;;10426745;28;20025;-74
2023/12/04 00:11:47;;;;;;;11.77;6.35;;;;;;;;;;10434138;28;20571;-74
2023/12/04 00:16:47;;;;;;;16.20;6.80;;;;;;;;;;10433822;28;20094;-75
2023/12/04 00:21:48;;;;;;;11.88;6.65;;;;;;;;;;10440390;28;20025;-73
2023/12/04 00:26:48;;;;;;;17.63;7.45;;;;;;;;;;10436782;28;20592;-74
2023/12/04 00:31:48;;;;;;;13.00;7.35;;;;;;;;;;10431526;28;20048;-74
2023/12/04 00:36:49;;;;;;;14.45;6.85;;;;;;;;;;10435936;28;20024;-74
2023/12/04 00:41:49;;;;;;;9.60;5.63;;;;;;;;;;10426867;28;20068;-74
2023/12/04 00:46:49;;;;;;;11.32;5.03;;;;;;;;;;10437123;28;20034;-74
2023/12/04 00:51:49;;;;;;;17.15;7.18;;;;;;;;;;10435052;28;20415;-74
2023/12/04 00:56:50;;;;;;;13.35;7.53;;;;;;;;;;10431897;28;20308;-75
2023/12/04 01:01:50;;;;;;;13.40;6.95;;;;;;;;;;10436952;28;20091;-74
2023/12/04 01:06:51;;;;;;;12.90;6.35;;;;;;;;;;10436163;28;21574;-73
2023/12/04 01:11:52;;;;;;;12.75;7.35;;;;;;;;;;10434593;28;20035;-74
2023/12/04 01:16:53;;;;;;;14.30;7.82;;;;;;;;;;10432383;28;20032;-74
2023/12/04 01:21:53;;;;;;;12.25;6.63;;;;;;;;;;10431787;28;20254;-74
2023/12/04 01:26:53;;;;;;;10.70;6.22;;;;;;;;;;10442135;28;20047;-75
2023/12/04 01:31:53;;;;;;;11.80;6.60;;;;;;;;;;10433419;28;20043;-74
2023/12/04 01:36:54;;;;;;;13.10;7.13;;;;;;;;;;10440248;28;20299;-74
2023/12/04 01:41:54;;;;;;;14.23;6.97;;;;;;;;;;10430910;28;20311;-74
2023/12/04 01:46:55;;;;;;;11.77;6.75;;;;;;;;;;10437036;28;20045;-75
2023/12/04 01:51:56;;;;;;;14.07;6.90;;;;;;;;;;10432587;28;20090;-76
2023/12/04 01:56:57;;;;;;;15.30;7.75;;;;;;;;;;10434274;28;20168;-72
2023/12/04 02:01:58;;;;;;;13.93;7.35;;;;;;;;;;10451263;28;20032;-72
2023/12/04 02:06:58;;;;;;;13.55;8.10;;;;;;;;;;10497645;22;20414;-75
2023/12/04 02:11:59;;;;;;;14.45;8.25;;;;;;;;;;10569846;28;20379;-74
2023/12/04 02:17:00;;;;;;;13.82;8.00;;;;;;;;;;10483723;23;20086;-74
2023/12/04 02:22:01;;;;;;;13.48;8.40;;;;;;;;;;10474463;28;20080;-74
2023/12/04 02:27:12;;;;;;;14.15;8.55;;;;;;;;;;10453705;28;20222;-74
2023/12/04 02:32:15;;;;;;;17.10;8.73;;;;;;;;;;10461305;28;20306;-74
2023/12/04 02:37:17;;;;;;;14.07;7.22;;;;;;;;;;10456463;28;20016;-74
2023/12/04 02:42:18;;;;;;;11.70;7.03;;;;;;;;;;10473688;28;20033;-74
2023/12/04 02:47:18;;;;;;;16.48;8.98;;;;;;;;;;10465863;28;20052;-73
2023/12/04 02:52:18;;;;;;;15.50;7.63;;;;;;;;;;10481251;28;20439;-74
2023/12/04 02:57:20;;;;;;;13.20;7.22;;;;;;;;;;10480690;28;20025;-74
2023/12/04 03:02:20;;;;;;;12.07;6.47;;;;;;;;;;10465191;28;20028;-74
2023/12/04 03:07:21;;;;;;;12.57;7.00;;;;;;;;;;10465953;28;20269;-74
2023/12/04 03:12:21;;;;;;;11.80;7.63;;;;;;;;;;10463641;28;20047;-74
2023/12/04 03:17:21;;;;;;;12.55;7.50;;;;;;;;;;10465071;28;20327;-73
2023/12/04 03:22:22;;;;;;;15.82;7.90;;;;;;;;;;10479774;28;20333;-74
2023/12/04 03:27:22;;;;;;;10.88;7.03;;;;;;;;;;10464986;28;20285;-74
2023/12/04 03:32:22;;;;;;;12.90;6.75;;;;;;;;;;10465012;28;20058;-74
2023/12/04 03:37:22;;;;;;;9.27;6.63;;;;;;;;;;10464957;28;20307;-74
2023/12/04 03:42:22;;;;;;;11.30;7.20;;;;;;;;;;10480157;28;20082;-74
2023/12/04 03:47:23;;;;;;;13.18;8.30;;;;;;;;;;10479991;28;20025;-73
2023/12/04 03:52:23;;;;;;;11.60;7.22;;;;;;;;;;10464404;28;20025;-75
2023/12/04 03:57:23;;;;;;;15.27;8.50;;;;;;;;;;10478804;28;20051;-73
2023/12/04 04:02:24;;;;;;;10.48;7.93;;;;;;;;;;10464597;28;20028;-74
2023/12/04 04:07:24;;;;;;;14.13;7.13;;;;;;;;;;10463289;28;20023;-73
2023/12/04 04:12:25;;;;;;;15.52;8.80;;;;;;;;;;10482918;28;20016;-74
2023/12/04 04:17:28;;;;;;;17.55;8.38;;;;;;;;;;10505260;28;20044;-74
2023/12/04 04:22:28;;;;;;;15.98;7.53;;;;;;;;;;10463208;28;20021;-74
2023/12/04 04:27:28;;;;;;;14.73;9.77;;;;;;;;;;10478769;28;20025;-74
2023/12/04 04:32:28;;;;;;;17.92;8.13;;;;;;;;;;10462924;28;20063;-74
2023/12/04 04:37:29;;;;;;;14.13;9.07;;;;;;;;;;10478261;28;20020;-74
2023/12/04 04:42:29;;;;;;;12.35;8.52;;;;;;;;;;10477975;28;20386;-73
2023/12/04 04:47:29;;;;;;;15.23;7.85;;;;;;;;;;10462285;28;20122;-75
2023/12/04 04:52:29;;;;;;;14.35;8.63;;;;;;;;;;10461917;28;20339;-74
2023/12/04 04:57:30;;;;;;;11.65;7.60;;;;;;;;;;10461480;28;20218;-74
2023/12/04 05:02:31;;;;;;;19.45;8.35;;;;;;;;;;10461633;28;20240;-74
2023/12/04 05:07:32;;;;;;;13.88;8.38;;;;;;;;;;10461517;28;20049;-75
2023/12/04 05:12:32;;;;;;;12.93;7.05;;;;;;;;;;10460204;28;20298;-73
2023/12/04 05:17:33;;;;;;;14.70;7.57;;;;;;;;;;10460659;28;20100;-73
2023/12/04 05:22:34;;;;;;;10.70;6.35;;;;;;;;;;10457562;28;20017;-73
2023/12/04 05:27:34;;;;;;;16.13;7.90;;;;;;;;;;10472041;28;20037;-74
2023/12/04 05:32:34;;;;;;;14.15;6.63;;;;;;;;;;10456666;28;20096;-73
2023/12/04 05:37:34;;;;;;;18.55;9.18;;;;;;;;;;10456553;28;20083;-72
2023/12/04 05:42:35;;;;;;;14.32;8.20;;;;;;;;;;10456203;28;20024;-73
2023/12/04 05:47:36;;;;;;;14.40;8.45;;;;;;;;;;10456540;28;20058;-72
2023/12/04 05:52:36;;;;;;;15.38;9.00;;;;;;;;;;10458950;28;20264;-73
2023/12/04 05:57:38;;;;;;;15.03;9.47;;;;;;;;;;10470197;28;20016;-73
2023/12/04 06:02:39;;;;;;;17.80;9.75;;;;;;;;;;10459187;28;20230;-72
2023/12/04 06:07:40;;;;;;;23.08;10.93;;;;;;;;;;10439024;28;20024;-73
2023/12/04 06:12:41;;;;;;;17.25;9.65;;;;;;;;;;10453007;28;20009;-73
2023/12/04 06:17:41;;;;;;;18.90;10.55;;;;;;;;;;10452161;28;20017;-74
2023/12/04 06:22:41;;;;;;;19.38;9.77;;;;;;;;;;10426648;28;20310;-73
2023/12/04 06:27:42;;;;;;;16.77;9.77;;;;;;;;;;10437109;28;20330;-75
2023/12/04 06:32:42;;;;;;;21.20;10.77;;;;;;;;;;10459411;28;20017;-75
2023/12/04 06:37:43;;;;;;;16.10;9.03;;;;;;;;;;10457482;28;20245;-73
2023/12/04 06:42:43;;;;;;;19.38;8.88;;;;;;;;;;10457188;28;20009;-75
2023/12/04 06:47:45;;;;;;;18.00;8.80;;;;;;;;;;10503397;28;20221;-74
2023/12/04 06:52:45;;;;;;;18.27;8.70;;;;;;;;;;10465297;28;20259;-73
2023/12/04 06:57:46;;;;;;;16.73;9.00;;;;;;;;;;10472244;28;20341;-74
2023/12/04 07:02:46;;;;;;;12.55;8.50;;;;;;;;;;10456960;28;20016;-74
2023/12/04 07:07:46;;;;;;;17.48;8.98;;;;;;;;;;10456754;28;20025;-72
2023/12/04 07:12:46;;;;;;;18.45;10.30;;;;;;;;;;10456498;28;20086;-74
2023/12/04 07:17:47;;;;;;;19.42;9.20;;;;;;;;;;10456826;28;20028;-73
2023/12/04 07:22:47;;;;;;;14.95;8.55;;;;;;;;;;10472375;28;20013;-74
2023/12/04 07:27:47;;;;;;;14.57;9.13;;;;;;;;;;10456980;28;20238;-73
2023/12/04 07:32:47;;;;;;;18.92;9.15;;;;;;;;;;10478466;28;20017;-73
2023/12/04 07:37:48;;;;;;;22.73;9.23;;;;;;;;;;10480574;28;20070;-73
2023/12/04 07:42:48;;;;;;;17.08;7.85;;;;;;;;;;10464505;28;20056;-74
2023/12/04 07:47:50;;;;;;;16.20;8.57;;;;;;;;;;10464794;28;20059;-73
2023/12/04 07:52:51;;;;;;;19.40;8.48;;;;;;;;;;10463591;28;20013;-75
2023/12/04 07:57:51;;;;;;;11.82;5.80;;;;;;;;;;10463712;28;20042;-74
2023/12/04 08:02:51;;;;;;;14.60;7.20;;;;;;;;;;10463444;28;20071;-73
2023/12/04 08:07:52;;;;;;;20.35;7.07;;;;;;;;;;10464136;28;20021;-74
2023/12/04 08:12:52;;;;;;;11.88;6.95;;;;;;;;;;10463060;28;20103;-74
2023/12/04 08:17:52;;;;;;;5.72;4.65;;;;;;;;;;10463140;28;20021;-73
2023/12/04 08:22:54;;;;;;;15.23;6.13;;;;;;;;;;10462300;28;20302;-75
2023/12/04 08:27:54;;;;;;;12.90;7.47;;;;;;;;;;10477655;28;20259;-72
2023/12/04 08:32:54;;;;;;;13.35;6.20;;;;;;;;;;10477780;28;20017;-73
2023/12/04 08:37:55;;;;;;;14.52;5.80;;;;;;;;;;10477043;28;20087;-73
2023/12/04 08:42:55;;;;;;;9.82;5.28;;;;;;;;;;10460175;28;20013;-74
2023/12/04 08:47:55;;;;;;;13.18;6.47;;;;;;;;;;10461214;28;20205;-73
2023/12/04 08:52:55;;;;;;;8.85;5.07;;;;;;;;;;10461314;28;20039;-73
2023/12/04 08:57:56;;;;;;;8.40;5.35;;;;;;;;;;10461805;28;20025;-73
2023/12/04 09:02:56;;;;;;;10.60;5.28;;;;;;;;;;10461116;28;20242;-74
2023/12/04 09:07:56;;;;;;;10.25;5.85;;;;;;;;;;10461047;28;20330;-73
2023/12/04 09:12:56;;;;;;;9.35;5.72;;;;;;;;;;10460394;28;20063;-74
2023/12/04 09:17:56;;;;;;;7.80;4.85;;;;;;;;;;10460697;28;20060;-73
2023/12/04 09:22:57;;;;;;;8.88;4.78;;;;;;;;;;10460510;28;20047;-76
2023/12/04 09:27:57;;;;;;;11.82;6.20;;;;;;;;;;10475530;28;20029;-75
2023/12/04 09:32:58;;;;;;;11.80;5.10;;;;;;;;;;10459878;28;20016;-75
2023/12/04 09:37:58;;;;;;;13.30;5.50;;;;;;;;;;10459488;28;20330;-75
2023/12/04 09:42:58;;;;;;;8.27;4.83;;;;;;;;;;10441481;28;20203;-75
2023/12/04 09:47:59;;;;;;;10.60;5.20;;;;;;;;;;10447399;28;20013;-75
2023/12/04 09:53:00;;;;;;;8.60;4.22;;;;;;;;;;10473905;28;20013;-75
2023/12/04 09:58:00;;;;;;;7.68;4.63;;;;;;;;;;10459111;28;20322;-74
2023/12/04 10:03:01;;;;;;;8.00;4.43;;;;;;;;;;10474764;28;20036;-74
2023/12/04 10:08:01;;;;;;;6.43;4.20;;;;;;;;;;10458650;28;20279;-74
2023/12/04 10:13:03;;;;;;;7.72;3.72;;;;;;;;;;10458688;28;20032;-75
2023/12/04 10:18:03;;;;;;;6.50;4.00;;;;;;;;;;10473432;28;20025;-75
2023/12/04 10:23:03;;;;;;;5.93;4.13;;;;;;;;;;10473768;28;20021;-75
2023/12/04 10:28:07;;;;;;;10.57;4.68;;;;;;;;;;10458300;28;20207;-74
2023/12/04 10:33:08;;;;;;;4.32;3.53;;;;;;;;;;10457778;28;20025;-75
2023/12/04 10:38:09;;;;;;;6.50;3.90;;;;;;;;;;10457749;28;20017;-74
2023/12/04 10:43:09;;;;;;;22.75;4.80;;;;;;;;;;10473297;28;20276;-74
2023/12/04 10:48:10;;;;;;;6.88;4.05;;;;;;;;;;10472429;28;20025;-75
2023/12/04 10:53:11;;;;;;;7.47;4.18;;;;;;;;;;10457457;28;20017;-75
2023/12/04 10:58:12;;;;;;;5.85;4.15;;;;;;;;;;10473088;28;20246;-76
2023/12/04 11:03:20;;;;;;;9.50;4.22;;;;;;;;;;10457923;28;20017;-75
2023/12/04 11:08:20;;;;;;;8.25;5.50;;;;;;;;;;10465355;28;20366;-75
2023/12/04 11:13:28;;;;;;;11.07;5.45;;;;;;;;;;10465837;28;20035;-75
2023/12/04 11:18:31;;;;;;;13.05;5.45;;;;;;;;;;10480685;28;20244;-75
2023/12/04 11:23:31;;;;;;;7.63;4.47;;;;;;;;;;10464827;28;20020;-74
2023/12/04 11:28:32;;;;;;;8.13;4.82;;;;;;;;;;10464769;28;20040;-74
2023/12/04 11:33:36;;;;;;;7.72;4.70;;;;;;;;;;10464977;28;20124;-74
2023/12/04 11:38:37;;;;;;;8.88;5.22;;;;;;;;;;10479643;28;20032;-74
2023/12/04 11:43:37;;;;;;;8.70;5.93;;;;;;;;;;10465004;28;20071;-75
2023/12/04 11:48:38;;;;;;;9.63;5.30;;;;;;;;;;10463820;28;20592;-75
2023/12/04 11:53:39;;;;;;;9.60;5.78;;;;;;;;;;10479051;28;20001;-74
2023/12/04 11:58:43;;;;;;;8.75;6.03;;;;;;;;;;10479203;28;20039;-74
2023/12/04 12:03:43;;;;;;;10.35;5.45;;;;;;;;;;10478964;28;20040;-74
2023/12/04 12:08:44;;;;;;;10.30;6.18;;;;;;;;;;10463110;28;20013;-74
2023/12/04 12:13:44;;;;;;;11.23;6.68;;;;;;;;;;10463155;28;20097;-75
2023/12/04 12:18:44;;;;;;;15.43;6.75;;;;;;;;;;10462687;28;20091;-75
2023/12/04 12:23:45;;;;;;;11.93;6.95;;;;;;;;;;10462468;28;20010;-74
2023/12/04 12:28:45;;;;;;;14.93;7.32;;;;;;;;;;10462207;28;20025;-74
2023/12/04 12:33:46;;;;;;;13.15;7.40;;;;;;;;;;10462421;28;20027;-73
2023/12/04 12:38:49;;;;;;;13.70;7.13;;;;;;;;;;10477303;28;20330;-73
2023/12/04 12:43:53;;;;;;;13.63;8.35;;;;;;;;;;10476870;28;20044;-75
2023/12/04 12:48:53;;;;;;;17.48;8.30;;;;;;;;;;10461213;28;20108;-74
2023/12/04 12:53:56;;;;;;;20.27;9.37;;;;;;;;;;10461525;28;20017;-74
2023/12/04 12:58:57;;;;;;;17.13;8.75;;;;;;;;;;10476791;28;20410;-74
2023/12/04 13:03:57;;;;;;;17.48;9.25;;;;;;;;;;10461131;28;20311;-74
2023/12/04 13:08:57;;;;;;;20.23;8.83;;;;;;;;;;10461005;28;20318;-74
2023/12/04 13:13:58;;;;;;;16.98;8.80;;;;;;;;;;10440856;28;20286;-74
2023/12/04 13:18:58;;;;;;;15.98;9.07;;;;;;;;;;10441469;28;20039;-73
2023/12/04 13:23:59;;;;;;;25.70;11.40;;;;;;;;;;10460114;28;20015;-73
2023/12/04 13:28:59;;;;;;;30.77;13.52;;;;;;;;;;10459281;28;20079;-74
2023/12/04 13:33:59;;;;;;;27.92;12.57;;;;;;;;;;10459610;28;20027;-74
2023/12/04 13:38:59;;;;;;;28.25;11.63;;;;;;;;;;10460535;28;20044;-74
2023/12/04 13:44:02;;;;;;;26.23;13.05;;;;;;;;;;10459794;28;20020;-74
2023/12/04 13:49:02;;;;;;;37.40;12.60;;;;;;;;;;10458018;28;20196;-74
2023/12/04 13:54:08;;;;;;;37.30;12.60;;;;;;;;;;10459178;28;20020;-74
2023/12/04 13:59:17;;;;;;;35.20;12.45;;;;;;;;;;10458992;28;20166;-74
2023/12/04 14:04:17;;;;;;;20.65;11.02;;;;;;;;;;10473898;28;20017;-73
2023/12/04 14:09:17;;;;;;;26.23;11.35;;;;;;;;;;10458756;28;20310;-73
2023/12/04 14:14:17;;;;;;;24.35;11.48;;;;;;;;;;10458074;28;20262;-73
2023/12/04 14:19:21;;;;;;;25.15;11.65;;;;;;;;;;10458698;28;20082;-74
2023/12/04 14:24:21;;;;;;;23.73;10.75;;;;;;;;;;10462094;28;20036;-74
2023/12/04 14:29:21;;;;;;;22.15;12.45;;;;;;;;;;10444096;28;20021;-74
2023/12/04 14:34:22;;;;;;;29.00;12.50;;;;;;;;;;10436114;28;20017;-76
2023/12/04 14:39:23;;;;;;;27.08;11.07;;;;;;;;;;10452726;28;20592;-75
2023/12/04 14:44:23;;;;;;;20.58;10.82;;;;;;;;;;10440118;28;20021;-74
2023/12/04 14:49:23;;;;;;;23.38;9.98;;;;;;;;;;10433080;28;20253;-74
2023/12/04 14:54:37;;;;;;;20.58;9.93;;;;;;;;;;10434715;28;20173;-75
2023/12/04 15:05:40;;;;;;;26.92;13.50;;;;;;;;;;10436173;28;20204;-75
2023/12/04 15:16:00;;;;;;;23.50;11.18;;;;;;;;;;10432411;28;20330;-75
2023/12/04 15:20:59;;;;;;;22.52;12.00;;;;;;;;;;10433663;28;20102;-73
2023/12/04 15:25:59;;;;;;;33.65;12.27;;;;;;;;;;10455030;28;20017;-76
2023/12/04 15:31:00;;;;;;;33.50;15.32;;;;;;;;;;10461539;28;20085;-73
2023/12/04 15:36:01;;;;;;;28.80;13.07;;;;;;;;;;10436580;28;20021;-74
2023/12/04 15:41:01;;;;;;;33.65;15.20;;;;;;;;;;10422748;28;20282;-73
2023/12/04 15:46:01;;;;;;;50.08;16.08;;;;;;;;;;10455826;28;20040;-73
2023/12/04 15:51:01;;;;;;;41.47;15.47;;;;;;;;;;10473348;28;20012;-74
2023/12/04 15:56:04;;;;;;;36.17;14.88;;;;;;;;;;10463101;28;20044;-73
2023/12/04 16:01:05;;;;;;;39.78;17.63;;;;;;;;;;10466489;28;20023;-73
2023/12/04 16:06:06;;;;;;;37.40;15.57;;;;;;;;;;10462643;28;20016;-73
2023/12/04 16:11:07;;;;;;;30.70;14.45;;;;;;;;;;10478057;28;20077;-73
2023/12/04 16:16:07;;;;;;;33.87;14.67;;;;;;;;;;10477541;28;20222;-74
2023/12/04 16:21:08;;;;;;;27.75;14.80;;;;;;;;;;10460557;28;20203;-73
2023/12/04 16:26:10;;;;;;;33.03;14.45;;;;;;;;;;10461634;28;20025;-73
2023/12/04 16:31:10;;;;;;;23.80;13.10;;;;;;;;;;10461248;28;20306;-72
2023/12/04 16:36:11;;;;;;;26.33;12.70;;;;;;;;;;10460850;28;20043;-72
2023/12/04 16:41:14;;;;;;;26.58;14.07;;;;;;;;;;10461026;28;20330;-72
2023/12/04 16:46:14;;;;;;;34.83;14.45;;;;;;;;;;10476302;28;20024;-73
2023/12/04 16:51:15;;;;;;;27.63;12.50;;;;;;;;;;10460566;28;20013;-72
2023/12/04 16:56:15;;;;;;;25.92;11.95;;;;;;;;;;10461245;28;20526;-74
2023/12/04 17:01:15;;;;;;;27.50;12.53;;;;;;;;;;10475974;28;20019;-74
2023/12/04 17:06:15;;;;;;;22.85;11.63;;;;;;;;;;10442702;28;20025;-75
2023/12/04 17:11:16;;;;;;;26.77;11.10;;;;;;;;;;10449706;28;20033;-73
2023/12/04 17:16:16;;;;;;;20.20;10.70;;;;;;;;;;10434059;28;20053;-77
2023/12/04 17:21:17;;;;;;;24.85;10.60;;;;;;;;;;10443969;28;20029;-75
2023/12/04 17:26:17;;;;;;;23.60;11.75;;;;;;;;;;10440235;28;20330;-73
2023/12/04 17:31:17;;;;;;;20.33;9.60;;;;;;;;;;10435849;28;20056;-75
2023/12/04 17:36:17;;;;;;;21.42;11.48;;;;;;;;;;10446010;28;20247;-75
2023/12/04 17:41:18;;;;;;;15.85;9.68;;;;;;;;;;10443595;28;20029;-75
2023/12/04 17:46:18;;;;;;;28.23;11.55;;;;;;;;;;10437895;28;20060;-74
2023/12/04 17:51:18;;;;;;;25.38;9.38;;;;;;;;;;10435914;28;20029;-74
2023/12/04 17:56:18;;;;;;;23.75;11.48;;;;;;;;;;10436769;28;20025;-75
2023/12/04 18:01:19;;;;;;;17.58;11.15;;;;;;;;;;10439406;28;20033;-76
2023/12/04 18:06:26;;;;;;;17.00;9.60;;;;;;;;;;10440088;28;20048;-73
2023/12/04 18:11:26;;;;;;;16.20;9.37;;;;;;;;;;10438321;28;20090;-74
2023/12/04 18:16:27;;;;;;;18.20;10.32;;;;;;;;;;10434215;28;20041;-76
2023/12/04 18:21:27;;;;;;;19.90;9.85;;;;;;;;;;10459317;28;20309;-76
2023/12/04 18:26:28;;;;;;;23.30;10.05;;;;;;;;;;10428549;28;20032;-78
2023/12/04 18:31:28;;;;;;;23.55;10.63;;;;;;;;;;10441746;28;20017;-87
2023/12/04 18:36:32;;;;;;;23.08;12.70;;;;;;;;;;10447870;28;20333;-74
2023/12/04 18:41:34;;;;;;;15.23;9.15;;;;;;;;;;10432368;28;20068;-75
2023/12/04 18:46:34;;;;;;;19.42;9.45;;;;;;;;;;10434359;28;20029;-75
2023/12/04 18:51:36;;;;;;;19.90;10.07;;;;;;;;;;10432379;28;20199;-76
2023/12/04 18:56:36;;;;;;;21.33;9.52;;;;;;;;;;10450568;28;20032;-81
2023/12/04 19:01:37;;;;;;;18.45;9.55;;;;;;;;;;10436568;28;20063;-82
2023/12/04 19:06:37;;;;;;;17.30;9.67;;;;;;;;;;10431084;28;20329;-75
2023/12/04 19:11:38;;;;;;;21.40;9.05;;;;;;;;;;10432393;28;20088;-75
2023/12/04 19:16:38;;;;;;;61.10;30.80;;;;;;;;;;10446250;28;20045;-77
2023/12/04 19:21:38;;;;;;;23.30;9.48;;;;;;;;;;10431793;28;20219;-76
2023/12/04 19:26:38;;;;;;;15.60;9.32;;;;;;;;;;10451484;28;20037;-76
2023/12/04 19:31:39;;;;;;;15.52;9.25;;;;;;;;;;10443392;28;20067;-76
2023/12/04 19:36:39;;;;;;;18.02;10.50;;;;;;;;;;10442058;28;20046;-76
2023/12/04 19:41:39;;;;;;;24.05;12.52;;;;;;;;;;10440970;28;20043;-76
2023/12/04 19:46:40;;;;;;;24.38;12.57;;;;;;;;;;10444424;28;20029;-75
2023/12/04 19:51:41;;;;;;;17.67;9.95;;;;;;;;;;10440197;28;20036;-84
2023/12/04 19:56:46;;;;;;;20.30;10.93;;;;;;;;;;10441044;28;20012;-80
2023/12/04 20:01:46;;;;;;;623.75;413.80;;;;;;;;;;10435640;28;20017;-75
2023/12/04 20:06:46;;;;;;;24.33;12.50;;;;;;;;;;10429124;28;20047;-80
2023/12/04 20:11:47;;;;;;;30.58;15.20;;;;;;;;;;10441237;28;20079;-79
2023/12/04 20:16:48;;;;;;;26.15;12.20;;;;;;;;;;10447008;28;20052;-79
2023/12/04 20:21:48;;;;;;;22.90;12.20;;;;;;;;;;10450649;28;20050;-76
2023/12/04 20:26:51;;;;;;;24.65;12.77;;;;;;;;;;10442001;28;20043;-78
2023/12/04 20:31:51;;;;;;;22.63;9.60;;;;;;;;;;10440257;28;20072;-77
2023/12/04 20:36:54;;;;;;;23.13;13.00;;;;;;;;;;10442508;28;20072;-80
2023/12/04 20:41:54;;;;;;;25.73;12.73;;;;;;;;;;10450304;28;20275;-77
2023/12/04 20:46:55;;;;;;;25.38;11.40;;;;;;;;;;10437051;28;20052;-79
2023/12/04 20:51:55;;;;;;;19.85;11.00;;;;;;;;;;10438080;28;20028;-79
2023/12/04 20:56:55;;;;;;;22.38;12.52;;;;;;;;;;10431054;28;20239;-82
2023/12/04 21:01:55;;;;;;;24.42;12.48;;;;;;;;;;10432301;28;20114;-82
2023/12/04 21:06:56;;;;;;;23.33;13.37;;;;;;;;;;10452682;28;20227;-80
2023/12/04 21:11:56;;;;;;;26.00;12.25;;;;;;;;;;10447437;28;20059;-85
2023/12/04 21:16:56;;;;;;;26.13;15.30;;;;;;;;;;10449392;28;20353;-82
2023/12/04 21:21:56;;;;;;;29.15;14.27;;;;;;;;;;10444579;28;20021;-79
2023/12/04 21:26:57;;;;;;;26.97;14.60;;;;;;;;;;10433362;28;20233;-82
2023/12/04 21:31:57;;;;;;;33.60;15.82;;;;;;;;;;10457705;28;20044;-83
2023/12/04 21:36:57;;;;;;;25.50;14.45;;;;;;;;;;10440374;28;20033;-85
2023/12/04 21:41:57;;;;;;;30.23;12.55;;;;;;;;;;10454117;28;20026;-83
2023/12/04 21:46:58;;;;;;;26.05;12.52;;;;;;;;;;10438327;28;20096;-80
2023/12/04 21:51:58;;;;;;;29.30;13.48;;;;;;;;;;10434383;28;20052;-79
2023/12/04 21:57:07;;;;;;;20.52;11.60;;;;;;;;;;10439051;28;20016;-90
2023/12/04 22:02:08;;;;;;;22.60;11.73;;;;;;;;;;10433829;28;20036;-79
2023/12/04 22:07:08;;;;;;;20.40;10.02;;;;;;;;;;10436553;28;20042;-77
2023/12/04 22:12:08;;;;;;;19.77;9.80;;;;;;;;;;10437576;28;20151;-77
2023/12/04 22:17:08;;;;;;;22.80;11.65;;;;;;;;;;10424587;28;20049;-80
2023/12/04 22:22:08;;;;;;;23.42;11.57;;;;;;;;;;10442411;28;20029;-79
2023/12/04 22:27:09;;;;;;;27.98;12.50;;;;;;;;;;10433092;28;20327;-82
2023/12/04 22:32:09;;;;;;;23.73;11.68;;;;;;;;;;10433033;28;20310;-79
2023/12/04 22:37:09;;;;;;;26.35;13.90;;;;;;;;;;10437894;28;20027;-79
2023/12/04 22:42:09;;;;;;;25.52;13.75;;;;;;;;;;10432722;28;20033;-78
2023/12/04 22:47:10;;;;;;;22.23;11.00;;;;;;;;;;10437936;28;20395;-78
2023/12/04 22:52:10;;;;;;;25.75;13.15;;;;;;;;;;10449303;28;20318;-80
2023/12/04 22:57:10;;;;;;;23.23;11.25;;;;;;;;;;10432083;28;20307;-80
2023/12/04 23:02:10;;;;;;;27.93;12.07;;;;;;;;;;10440518;28;20048;-78
2023/12/04 23:07:11;;;;;;;21.02;10.27;;;;;;;;;;10437610;28;20017;-79
2023/12/04 23:12:11;;;;;;;21.65;11.88;;;;;;;;;;10446843;28;20326;-81
2023/12/04 23:17:11;;;;;;;24.50;11.85;;;;;;;;;;10443014;28;20046;-82
2023/12/04 23:22:12;;;;;;;23.70;12.73;;;;;;;;;;10454285;28;20029;-78
2023/12/04 23:27:12;;;;;;;25.08;12.05;;;;;;;;;;10455319;28;20037;-79
2023/12/04 23:32:12;;;;;;;22.33;11.65;;;;;;;;;;10442368;28;20044;-75
2023/12/04 23:37:13;;;;;;;25.25;11.70;;;;;;;;;;10448985;28;20031;-83
2023/12/04 23:42:13;;;;;;;24.53;11.43;;;;;;;;;;10441004;28;20029;-76
2023/12/04 23:47:13;;;;;;;20.20;10.38;;;;;;;;;;10440981;28;20279;-78
2023/12/04 23:52:13;;;;;;;22.80;11.48;;;;;;;;;;10439424;28;20017;-77
2023/12/04 23:57:14;;;;;;;22.50;10.18;;;;;;;;;;10448986;28;20039;-82
